createdAt,value
2022-09-02T00:02:10.137Z,100810.22
2022-09-02T00:04:39.918Z,100815.69
2022-09-02T00:07:09.592Z,100813.22
2022-09-02T00:09:40.635Z,100810.66
2022-09-02T00:12:13.046Z,100805.56
2022-09-02T00:14:42.776Z,100808.38
2022-09-02T00:17:12.465Z,100800.59
2022-09-02T00:19:42.130Z,100803.41
2022-09-02T00:22:11.876Z,100799.16
2022-09-02T00:24:41.575Z,100796.69
2022-09-02T00:27:13.864Z,100798.47
2022-09-02T00:29:43.601Z,100794.28
2022-09-02T00:32:13.600Z,100796.19
2022-09-02T00:34:43.294Z,100801.59
2022-09-02T00:37:13.374Z,100797.28
2022-09-02T00:39:43.410Z,100796.53
2022-09-02T00:42:16.307Z,100787.72
2022-09-02T00:44:46.052Z,100787.97
2022-09-02T00:47:15.836Z,100788.25
2022-09-02T00:49:47.683Z,100788.44
2022-09-02T00:52:20.534Z,100788.59
2022-09-02T00:54:57.771Z,100783.19
2022-09-02T00:57:34.646Z,100782.25
2022-09-02T01:00:09.067Z,100781.56
2022-09-02T01:02:40.410Z,100775.50
2022-09-02T01:05:12.710Z,100773.97
2022-09-02T01:07:43.311Z,100777.56
2022-09-02T01:10:17.578Z,100777.75
2022-09-02T01:12:50.485Z,100773.38
2022-09-02T01:15:20.181Z,100778.84
2022-09-02T01:17:52.234Z,100776.19
2022-09-02T01:20:25.598Z,100779.09
2022-09-02T01:22:58.574Z,100776.50
2022-09-02T01:25:30.880Z,100772.16
2022-09-02T01:28:03.409Z,100776.69
2022-09-02T01:30:33.477Z,100767.22
2022-09-02T01:33:03.198Z,100770.00
2022-09-02T01:35:32.995Z,100761.38
2022-09-02T01:38:05.328Z,100768.56
2022-09-02T01:40:36.003Z,100760.59
2022-09-02T01:43:09.397Z,100755.56
2022-09-02T01:45:40.104Z,100757.47
2022-09-02T01:48:11.248Z,100755.75
2022-09-02T01:50:46.813Z,100746.06
2022-09-02T01:53:20.231Z,100752.22
2022-09-02T01:55:50.222Z,100747.00
2022-09-02T01:58:19.973Z,100742.81
2022-09-02T02:00:50.114Z,100741.88
2022-09-02T02:03:20.345Z,100746.41
2022-09-02T02:05:51.075Z,100737.84
2022-09-02T02:08:25.913Z,100750.16
2022-09-02T02:10:56.763Z,100748.66
2022-09-02T02:13:27.661Z,100746.75
2022-09-02T02:15:58.775Z,100740.69
2022-09-02T02:18:30.014Z,100739.03
2022-09-02T02:20:59.755Z,100745.19
2022-09-02T02:23:32.197Z,100747.00
2022-09-02T02:26:02.786Z,100750.69
2022-09-02T02:28:32.507Z,100735.72
2022-09-02T02:31:02.730Z,100742.06
2022-09-02T02:33:36.026Z,100744.72
2022-09-02T02:36:07.260Z,100743.16
2022-09-02T02:38:41.895Z,100747.59
2022-09-02T02:41:11.609Z,100751.19
2022-09-02T02:43:41.903Z,100744.19
2022-09-02T02:46:12.091Z,100743.34
2022-09-02T02:48:41.983Z,100753.00
2022-09-02T02:51:12.657Z,100739.88
2022-09-02T02:53:45.483Z,100747.78
2022-09-02T02:56:15.180Z,100746.03
2022-09-02T03:02:34.351Z,100743.41
2022-09-02T03:05:04.352Z,100744.28
2022-09-02T03:07:34.084Z,100744.34
2022-09-02T03:10:10.965Z,100732.03
2022-09-02T03:12:47.300Z,100736.56
2022-09-02T03:15:20.161Z,100732.22
2022-09-02T03:17:53.755Z,100730.50
2022-09-02T03:20:24.386Z,100740.41
2022-09-02T03:23:00.213Z,100738.59
2022-09-02T03:25:35.874Z,100732.44
2022-09-02T03:28:13.043Z,100734.25
2022-09-02T03:30:44.590Z,100738.69
2022-09-02T03:33:14.819Z,100735.19
2022-09-02T03:35:45.852Z,100731.69
2022-09-02T03:38:16.324Z,100736.03
2022-09-02T03:40:50.718Z,100737.84
2022-09-02T03:43:21.984Z,100732.53
2022-09-02T03:45:52.545Z,100729.88
2022-09-02T03:48:23.080Z,100731.50
2022-09-02T03:50:52.839Z,100723.63
2022-09-02T03:53:24.062Z,100731.44
2022-09-02T03:56:06.809Z,100726.16
2022-09-02T03:58:37.414Z,100727.94
2022-09-02T04:01:07.944Z,100725.28
2022-09-02T04:03:37.572Z,100725.28
2022-09-02T04:06:07.641Z,100724.50
2022-09-02T04:08:37.532Z,100727.22
2022-09-02T04:11:13.115Z,100721.94
2022-09-02T04:13:43.109Z,100721.09
2022-09-02T04:16:14.461Z,100720.22
2022-09-02T04:18:44.479Z,100725.53
2022-09-02T04:21:15.404Z,100725.72
2022-09-02T04:23:46.009Z,100721.25
2022-09-02T04:26:21.435Z,100719.56
2022-09-02T04:28:55.587Z,100717.81
2022-09-02T04:31:30.034Z,100720.41
2022-09-02T04:34:00.868Z,100718.66
2022-09-02T04:36:32.447Z,100723.06
2022-09-02T04:39:06.134Z,100717.75
2022-09-02T04:41:40.179Z,100715.25
2022-09-02T04:44:12.381Z,100715.25
2022-09-02T04:46:45.251Z,100718.00
2022-09-02T04:49:19.909Z,100715.44
2022-09-02T04:51:50.674Z,100713.63
2022-09-02T04:54:20.595Z,100711.13
2022-09-02T04:56:55.896Z,100709.44
2022-09-02T04:59:27.319Z,100712.16
2022-09-02T05:02:04.704Z,100719.34
2022-09-02T05:04:34.759Z,100721.16
2022-09-02T05:07:05.187Z,100716.09
2022-09-02T05:09:41.370Z,100715.31
2022-09-02T05:12:14.670Z,100717.13
2022-09-02T05:14:51.336Z,100712.91
2022-09-02T05:17:23.132Z,100725.47
2022-09-02T05:19:54.635Z,100715.91
2022-09-02T05:22:25.451Z,100712.41
2022-09-02T05:24:58.082Z,100721.44
2022-09-02T05:27:30.774Z,100719.72
2022-09-02T05:30:00.766Z,100724.09
2022-09-02T05:32:37.439Z,100723.22
2022-09-02T05:35:08.786Z,100719.66
2022-09-02T05:37:39.440Z,100726.59
2022-09-02T05:40:14.884Z,100716.91
2022-09-02T05:42:48.830Z,100722.91
2022-09-02T05:45:19.192Z,100723.59
2022-09-02T05:47:50.438Z,100716.34
2022-09-02T05:50:20.683Z,100718.72
2022-09-02T05:52:53.184Z,100715.00
2022-09-02T05:55:24.743Z,100719.09
2022-09-02T05:57:57.075Z,100714.41
2022-09-02T06:00:26.678Z,100717.56
2022-09-02T06:03:02.615Z,100712.88
2022-09-02T06:05:37.362Z,100716.13
2022-09-02T06:08:21.778Z,100717.59
2022-09-02T06:10:52.127Z,100708.44
2022-09-02T06:13:27.577Z,100716.22
2022-09-02T06:15:58.139Z,100716.81
2022-09-02T06:18:32.233Z,100715.53
2022-09-02T06:21:02.551Z,100712.69
2022-09-02T06:23:39.001Z,100722.03
2022-09-02T06:26:12.503Z,100717.28
2022-09-02T06:28:45.381Z,100712.59
2022-09-02T06:31:18.323Z,100702.66
2022-09-02T06:33:49.176Z,100705.03
2022-09-02T06:36:21.419Z,100704.00
2022-09-02T06:38:53.955Z,100708.22
2022-09-02T06:41:27.526Z,100707.94
2022-09-02T06:44:03.306Z,100708.53
2022-09-02T06:46:37.398Z,100707.34
2022-09-02T06:49:10.491Z,100704.38
2022-09-02T06:51:43.659Z,100710.19
2022-09-02T06:54:16.779Z,100706.34
2022-09-02T06:56:49.582Z,100707.78
2022-09-02T06:59:24.977Z,100711.94
2022-09-02T07:01:58.451Z,100707.97
2022-09-02T07:04:42.170Z,100703.16
2022-09-02T07:07:15.152Z,100700.88
2022-09-02T07:09:52.873Z,100708.28
2022-09-02T07:12:22.991Z,100701.56
2022-09-02T07:15:01.068Z,100702.69
2022-09-02T07:17:36.595Z,100701.19
2022-09-02T07:20:10.033Z,100698.03
2022-09-02T07:22:45.211Z,100703.78
2022-09-02T07:25:18.452Z,100700.63
2022-09-02T07:27:51.366Z,100698.41
2022-09-02T07:30:24.162Z,100696.09
2022-09-02T07:33:15.638Z,100696.38
2022-09-02T07:35:48.247Z,100704.81
2022-09-02T07:38:20.138Z,100695.47
2022-09-02T07:40:56.911Z,100687.09
2022-09-02T07:43:27.972Z,100692.78
2022-09-02T07:46:01.657Z,100691.31
2022-09-02T07:48:32.999Z,100688.03
2022-09-02T07:51:04.188Z,100686.47
2022-09-02T07:53:35.441Z,100687.56
2022-09-02T07:56:06.436Z,100687.94
2022-09-02T07:58:36.267Z,100674.19
2022-09-02T08:01:09.653Z,100680.88
2022-09-02T08:03:44.334Z,100674.72
2022-09-02T08:06:15.883Z,100672.81
2022-09-02T08:08:46.150Z,100671.09
2022-09-02T08:11:15.897Z,100676.31
2022-09-02T08:13:45.961Z,100671.38
2022-09-02T08:16:18.754Z,100684.38
2022-09-02T08:18:48.869Z,100681.56
2022-09-02T08:21:19.058Z,100673.44
2022-09-02T08:23:51.454Z,100670.69
2022-09-02T08:26:21.779Z,100674.00
2022-09-02T08:28:53.003Z,100674.25
2022-09-02T08:31:26.202Z,100668.03
2022-09-02T08:33:55.865Z,100672.53
2022-09-02T08:36:25.577Z,100666.38
2022-09-02T08:38:55.783Z,100669.19
2022-09-02T08:41:27.921Z,100672.97
2022-09-02T08:43:59.884Z,100669.31
2022-09-02T08:46:36.018Z,100669.44
2022-09-02T08:49:08.227Z,100659.44
2022-09-02T08:51:40.001Z,100654.59
2022-09-02T08:54:13.277Z,100655.81
2022-09-02T08:56:43.200Z,100654.97
2022-09-02T08:59:15.138Z,100650.28
2022-09-02T09:01:50.262Z,100653.19
2022-09-02T09:04:23.598Z,100645.97
2022-09-02T09:07:06.962Z,100647.47
2022-09-02T09:09:47.691Z,100646.19
2022-09-02T09:12:22.852Z,100638.59
2022-09-02T09:14:58.119Z,100637.09
2022-09-02T09:17:32.571Z,100638.75
2022-09-02T09:20:04.307Z,100634.09
2022-09-02T09:22:37.500Z,100626.81
2022-09-02T09:25:11.545Z,100626.59
2022-09-02T09:27:41.708Z,100622.44
2022-09-02T09:30:15.529Z,100612.06
2022-09-02T09:32:51.277Z,100617.22
2022-09-02T09:35:21.769Z,100601.88
2022-09-02T09:37:52.360Z,100597.78
2022-09-02T09:40:37.628Z,100593.44
2022-09-02T09:43:16.414Z,100593.56
2022-09-02T09:45:47.682Z,100596.22
2022-09-02T09:48:27.700Z,100594.66
2022-09-02T09:51:13.545Z,100586.97
2022-09-02T09:53:43.175Z,100588.97
2022-09-02T09:56:32.415Z,100589.28
2022-09-02T09:59:10.379Z,100595.75
2022-09-02T10:01:40.141Z,100589.53
2022-09-02T10:04:39.274Z,100592.38
2022-09-02T10:07:05.239Z,100590.84
2022-09-02T10:09:37.534Z,100588.00
2022-09-02T10:12:09.011Z,100585.47
2022-09-02T10:14:40.172Z,100585.59
2022-09-02T10:17:19.846Z,100581.94
2022-09-02T10:19:58.322Z,100573.72
2022-09-02T10:23:07.193Z,100577.94
2022-09-02T10:25:43.108Z,100570.56
2022-09-02T10:28:23.290Z,100572.13
2022-09-02T10:30:59.798Z,100572.84
2022-09-02T10:33:35.720Z,100565.63
2022-09-02T10:36:20.925Z,100567.16
2022-09-02T10:38:53.811Z,100565.19
2022-09-02T10:41:33.419Z,100569.09
2022-09-02T10:44:21.747Z,100558.66
2022-09-02T10:47:00.251Z,100554.69
2022-09-02T10:49:54.285Z,100556.38
2022-09-02T10:52:38.494Z,100557.75
2022-09-02T10:55:15.477Z,100563.13
2022-09-02T10:57:49.571Z,100556.75
2022-09-02T11:00:21.763Z,100563.41
2022-09-02T11:02:56.241Z,100550.63
2022-09-02T11:05:28.764Z,100556.78
2022-09-02T11:08:04.410Z,100560.84
2022-09-02T11:10:37.322Z,100555.19
2022-09-02T11:13:09.524Z,100553.88
2022-09-02T11:15:47.259Z,100558.09
2022-09-02T11:18:23.104Z,100548.75
2022-09-02T11:21:02.185Z,100543.34
2022-09-02T11:23:40.083Z,100543.75
2022-09-02T11:26:14.798Z,100537.91
2022-09-02T11:28:47.564Z,100533.06
2022-09-02T11:31:22.591Z,100533.47
2022-09-02T11:33:57.756Z,100540.63
2022-09-02T11:36:33.366Z,100537.50
2022-09-02T11:39:09.352Z,100543.09
2022-09-02T11:41:52.455Z,100538.25
2022-09-02T11:44:34.465Z,100535.09
2022-09-02T11:47:12.100Z,100529.72
2022-09-02T11:50:05.621Z,100533.25
2022-09-02T11:52:51.155Z,100525.00
2022-09-02T11:55:25.436Z,100523.84
2022-09-02T11:57:57.628Z,100516.69
2022-09-02T12:00:31.959Z,100520.22
2022-09-02T12:03:16.779Z,100513.00
2022-09-02T12:06:13.751Z,100508.44
2022-09-02T12:09:16.436Z,100503.91
2022-09-02T12:11:51.019Z,100500.84
2022-09-02T12:15:02.186Z,100491.91
2022-09-02T12:17:39.083Z,100499.00
2022-09-02T12:20:12.192Z,100498.50
2022-09-02T12:22:42.595Z,100502.00
2022-09-02T12:25:43.213Z,100486.31
2022-09-02T12:28:24.243Z,100486.59
2022-09-02T12:31:21.751Z,100490.31
2022-09-02T12:33:52.595Z,100486.78
2022-09-02T12:36:52.098Z,100480.81
2022-09-02T12:39:54.850Z,100470.78
2022-09-02T12:42:28.972Z,100472.38
2022-09-02T12:45:09.034Z,100472.53
2022-09-02T12:47:56.272Z,100465.00
2022-09-02T12:50:33.281Z,100465.09
2022-09-02T12:53:24.995Z,100462.25
2022-09-02T12:55:58.025Z,100458.22
2022-09-02T12:58:27.982Z,100455.84
2022-09-02T13:01:06.984Z,100459.94
2022-09-02T13:03:50.159Z,100448.31
2022-09-02T13:06:24.831Z,100456.72
2022-09-02T13:09:23.258Z,100442.38
2022-09-02T13:12:25.664Z,100445.91
2022-09-02T13:15:33.359Z,100445.44
2022-09-02T13:18:28.095Z,100440.91
2022-09-02T13:21:08.826Z,100436.50
2022-09-02T13:24:06.206Z,100437.16
2022-09-02T13:27:12.065Z,100440.53
2022-09-02T13:30:08.883Z,100430.09
2022-09-02T13:32:39.328Z,100430.09
2022-09-02T13:35:21.444Z,100430.25
2022-09-02T13:37:59.888Z,100419.44
2022-09-02T13:40:33.531Z,100421.13
2022-09-02T13:43:04.476Z,100430.25
2022-09-02T13:45:36.812Z,100414.53
2022-09-02T13:48:11.579Z,100416.22
2022-09-02T13:50:46.279Z,100409.28
2022-09-02T13:53:45.645Z,100408.09
2022-09-02T13:56:11.534Z,100412.19
2022-09-02T13:58:44.812Z,100409.50
2022-09-02T14:01:24.238Z,100405.59
2022-09-02T14:03:55.719Z,100401.56
2022-09-02T14:06:30.808Z,100399.00
2022-09-02T14:09:02.473Z,100394.28
2022-09-02T14:11:43.885Z,100393.59
2022-09-02T14:14:16.949Z,100388.19
2022-09-02T14:16:46.712Z,100390.75
2022-09-02T14:19:27.308Z,100399.53
2022-09-02T14:22:00.404Z,100391.91
2022-09-02T14:24:31.596Z,100389.53
2022-09-02T14:27:02.315Z,100385.34
2022-09-02T14:29:33.950Z,100385.16
2022-09-02T14:32:12.376Z,100382.97
2022-09-02T14:34:44.491Z,100382.13
2022-09-02T14:37:23.538Z,100371.84
2022-09-02T14:40:05.825Z,100371.13
2022-09-02T14:42:35.729Z,100370.97
2022-09-02T14:45:09.600Z,100365.25
2022-09-02T14:47:40.056Z,100363.38
2022-09-02T14:50:15.488Z,100365.25
2022-09-02T14:52:52.289Z,100363.38
2022-09-02T14:55:44.969Z,100364.25
2022-09-02T14:58:15.186Z,100355.28
2022-09-02T15:00:47.659Z,100343.47
2022-09-02T15:03:19.064Z,100355.47
2022-09-02T15:05:49.318Z,100344.13
2022-09-02T15:08:21.610Z,100344.31
2022-09-02T15:10:51.857Z,100342.44
2022-09-02T15:13:28.584Z,100343.78
2022-09-02T15:15:59.543Z,100338.22
2022-09-02T15:18:29.412Z,100326.75
2022-09-02T15:20:59.120Z,100334.34
2022-09-02T15:23:34.645Z,100330.81
2022-09-02T15:26:04.898Z,100328.75
2022-09-02T15:28:34.542Z,100333.31
2022-09-02T15:31:04.975Z,100329.59
2022-09-02T15:33:34.705Z,100322.19
2022-09-02T15:36:12.755Z,100323.53
2022-09-02T15:38:45.218Z,100317.94
2022-09-02T15:41:19.890Z,100326.22
2022-09-02T15:43:50.769Z,100320.16
2022-09-02T15:46:24.326Z,100324.53
2022-09-02T15:48:56.878Z,100323.88
2022-09-02T15:51:30.270Z,100323.03
2022-09-02T15:54:04.691Z,100326.41
2022-09-02T15:56:35.923Z,100321.19
2022-09-02T15:59:09.545Z,100331.16
2022-09-02T16:01:40.766Z,100320.84
2022-09-02T16:04:11.066Z,100316.13
2022-09-02T16:06:43.093Z,100315.81
2022-09-02T16:09:16.414Z,100311.25
2022-09-02T16:11:47.763Z,100305.84
2022-09-02T16:14:20.941Z,100315.13
2022-09-02T16:16:52.603Z,100308.03
2022-09-02T16:19:23.205Z,100307.53
2022-09-02T16:21:53.582Z,100300.63
2022-09-02T16:24:25.911Z,100300.78
2022-09-02T16:26:56.040Z,100300.09
2022-09-02T16:29:28.207Z,100301.97
2022-09-02T16:34:49.163Z,100297.53
2022-09-02T16:37:19.193Z,100295.03
2022-09-02T16:39:51.549Z,100300.72
2022-09-02T16:42:21.288Z,100303.78
2022-09-02T16:44:54.753Z,100296.88
2022-09-02T16:47:25.018Z,100295.66
2022-09-02T16:49:54.656Z,100296.84
2022-09-02T16:52:24.386Z,100292.47
2022-09-02T16:54:56.616Z,100303.25
2022-09-02T16:57:26.396Z,100301.88
2022-09-02T16:59:56.087Z,100300.53
2022-09-02T17:02:26.050Z,100298.31
2022-09-02T17:04:55.756Z,100288.72
2022-09-02T17:07:25.487Z,100300.50
2022-09-02T17:09:57.749Z,100299.78
2022-09-02T17:12:27.435Z,100296.59
2022-09-02T17:14:57.090Z,100295.22
2022-09-02T17:17:26.856Z,100293.03
2022-09-02T17:19:56.607Z,100290.94
2022-09-02T17:22:27.763Z,100286.72
2022-09-02T17:25:00.479Z,100295.47
2022-09-02T17:27:30.176Z,100298.50
2022-09-02T17:30:00.062Z,100297.94
2022-09-02T17:32:29.765Z,100293.03
2022-09-02T17:34:59.391Z,100296.22
2022-09-02T17:37:29.489Z,100299.41
2022-09-02T17:40:01.864Z,100292.13
2022-09-02T17:42:29.002Z,100302.16
2022-09-02T17:44:58.595Z,100304.66
2022-09-02T17:47:31.695Z,100304.13
2022-09-02T17:50:01.423Z,100300.06
2022-09-02T17:52:31.128Z,100300.53
2022-09-02T17:55:03.828Z,100296.44
2022-09-02T17:57:43.267Z,100298.91
2022-09-02T18:00:14.977Z,100296.22
2022-09-02T18:02:58.917Z,100292.28
2022-09-02T18:05:30.239Z,100291.50
2022-09-02T18:08:03.887Z,100299.66
2022-09-02T18:10:38.608Z,100299.22
2022-09-02T18:13:10.418Z,100289.25
2022-09-02T18:19:23.416Z,100291.78
2022-09-02T18:22:07.869Z,100283.28
2022-09-02T18:24:58.159Z,100282.63
2022-09-02T18:27:40.560Z,100281.16
2022-09-02T18:30:12.218Z,100293.81
2022-09-02T18:33:09.725Z,100289.47
2022-09-02T18:35:50.283Z,100295.38
2022-09-02T18:38:28.421Z,100285.69
2022-09-02T18:41:11.113Z,100301.16
2022-09-02T18:43:52.181Z,100297.50
2022-09-02T18:46:22.542Z,100299.09
2022-09-02T18:48:53.238Z,100305.44
2022-09-02T18:51:27.852Z,100296.59
2022-09-02T18:54:00.761Z,100304.34
2022-09-02T18:56:34.461Z,100306.50
2022-09-02T18:59:12.220Z,100309.75
2022-09-02T19:01:46.164Z,100305.06
2022-09-02T19:04:18.164Z,100308.16
2022-09-02T19:06:48.534Z,100316.06
2022-09-02T19:09:25.764Z,100308.88
2022-09-02T19:11:55.976Z,100317.19
2022-09-02T19:14:31.307Z,100321.44
2022-09-02T19:17:04.254Z,100322.81
2022-09-02T19:19:35.225Z,100323.66
2022-09-02T19:22:07.983Z,100321.41
2022-09-02T19:24:42.695Z,100321.28
2022-09-02T19:27:15.771Z,100328.72
2022-09-02T19:29:51.350Z,100319.28
2022-09-02T19:32:28.681Z,100320.09
2022-09-02T19:34:59.166Z,100317.94
2022-09-02T19:37:29.433Z,100320.44
2022-09-02T19:40:03.698Z,100321.13
2022-09-02T19:42:33.827Z,100327.31
2022-09-02T19:45:06.352Z,100328.13
2022-09-02T19:50:26.164Z,100329.16
2022-09-02T19:52:55.848Z,100332.66
2022-09-02T19:55:25.573Z,100330.78
2022-09-02T19:57:55.463Z,100336.06
2022-09-02T20:00:27.970Z,100336.81
2022-09-02T20:02:57.871Z,100336.59
2022-09-02T20:05:28.216Z,100329.22
2022-09-02T20:07:57.807Z,100331.47
2022-09-02T20:10:29.754Z,100336.34
2022-09-02T20:13:00.064Z,100331.50
2022-09-02T20:15:32.365Z,100334.72
2022-09-02T20:18:11.868Z,100328.44
2022-09-02T20:20:44.985Z,100331.50
2022-09-02T20:23:17.504Z,100326.66
2022-09-02T20:25:58.294Z,100330.94
2022-09-02T20:28:33.229Z,100330.47
2022-09-02T20:31:12.005Z,100335.59
2022-09-02T20:33:48.275Z,100323.00
2022-09-02T20:36:25.918Z,100332.22
2022-09-02T20:39:18.212Z,100321.31
2022-09-02T20:41:55.358Z,100321.78
2022-09-02T20:44:35.512Z,100316.94
2022-09-02T20:47:19.584Z,100320.94
2022-09-02T20:50:00.117Z,100322.91
2022-09-02T20:52:37.926Z,100316.38
2022-09-02T20:55:11.155Z,100319.53
2022-09-02T20:58:14.206Z,100322.31
2022-09-02T21:00:50.457Z,100316.59
2022-09-02T21:03:24.294Z,100321.44
2022-09-02T21:05:58.140Z,100316.63
2022-09-02T21:08:33.880Z,100316.13
2022-09-02T21:11:04.742Z,100312.34
2022-09-02T21:13:39.992Z,100313.91
2022-09-02T21:16:12.266Z,100308.81
2022-09-02T21:19:01.852Z,100308.44
2022-09-02T21:21:34.495Z,100317.75
2022-09-02T21:24:08.359Z,100314.56
2022-09-02T21:26:44.768Z,100314.09
2022-09-02T21:29:23.426Z,100316.38
2022-09-02T21:31:56.656Z,100310.41
2022-09-02T21:34:32.707Z,100312.81
2022-09-02T21:37:03.129Z,100312.22
2022-09-02T21:39:35.479Z,100312.53
2022-09-02T21:42:14.614Z,100322.59
2022-09-02T21:44:55.916Z,100316.03
2022-09-02T21:47:28.508Z,100316.28
2022-09-02T21:50:08.635Z,100315.88
2022-09-02T21:52:48.984Z,100313.53
2022-09-02T21:55:30.131Z,100314.75
2022-09-02T21:58:15.257Z,100309.75
2022-09-02T22:00:47.138Z,100313.38
2022-09-02T22:03:21.179Z,100309.34
2022-09-02T22:05:57.966Z,100312.13
2022-09-02T22:08:33.577Z,100318.84
2022-09-02T22:11:08.615Z,100317.25
2022-09-02T22:13:40.215Z,100314.06
2022-09-02T22:16:17.578Z,100308.25
2022-09-02T22:18:54.300Z,100311.13
2022-09-02T22:21:30.475Z,100305.31
2022-09-02T22:24:00.132Z,100299.44
2022-09-02T22:26:37.311Z,100308.63
2022-09-02T22:29:12.129Z,100304.59
2022-09-02T22:31:45.129Z,100303.88
2022-09-02T22:34:18.612Z,100299.16
2022-09-02T22:36:57.985Z,100301.75
2022-09-02T22:39:33.857Z,100291.44
2022-09-02T22:42:11.240Z,100294.19
2022-09-02T22:44:59.492Z,100293.47
2022-09-02T22:47:43.481Z,100293.66
2022-09-02T22:50:29.224Z,100291.00
2022-09-02T22:53:01.514Z,100286.88
2022-09-02T22:55:53.913Z,100285.06
2022-09-02T22:58:44.485Z,100285.28
2022-09-02T23:01:20.082Z,100283.69
2022-09-02T23:04:03.509Z,100277.31
2022-09-02T23:06:34.393Z,100288.94
2022-09-02T23:09:10.402Z,100281.25
2022-09-02T23:11:49.367Z,100288.28
2022-09-02T23:14:26.884Z,100285.63
2022-09-02T23:17:20.518Z,100287.66
2022-09-02T23:19:59.048Z,100283.41
2022-09-02T23:22:36.676Z,100286.06
2022-09-02T23:25:23.121Z,100287.00
2022-09-02T23:28:00.821Z,100287.13
2022-09-02T23:30:30.514Z,100290.75
2022-09-02T23:33:10.255Z,100287.25
2022-09-02T23:35:48.250Z,100281.28
2022-09-02T23:38:44.207Z,100279.56
2022-09-02T23:41:18.480Z,100277.97
2022-09-02T23:43:48.547Z,100275.44
2022-09-02T23:46:24.304Z,100277.03
2022-09-02T23:49:04.744Z,100274.38
2022-09-02T23:51:42.354Z,100278.09
2022-09-02T23:54:32.005Z,100271.81
2022-09-02T23:57:18.516Z,100268.72
